• Join FlightAware (Why Join?)
  • Login
  • US Flag 
08:25AM EDT


 

Airport Tracker/Info


-or-


 

Live Flight TrackerFlight Track Log ✈ SWA1319 ✈ 26-Apr-2013 ✈ KBHM - KDAL

Flight Track Log - Related Links

Times and Time Zones

All times are in EDT time to prevent confusion due to time zone crossing. See the SWA1319 flight status page for this flight to view local times or setup timezone preferences in your user account.

Time Position Orientation Groundspeed Altitude Reporting Facility
EDT Latitude Longitude Course Direction KTS MPH feet Rate Location/Type
01:54PM 33.5094 -86.8567 238° Southwest 256 295 4,500  Level Atlanta Center
01:55PM 33.4953 -86.9333 258° West 291 335 7,500 2,700 Climbing Atlanta Center
01:56PM 33.4931 -87.0281 268° West 291 335 10,100 2,160 Climbing Atlanta Center
01:57PM 33.4839 -87.1372 264° West 312 359 11,900 2,160 Climbing Atlanta Center
01:58PM 33.4706 -87.2539 262° West 337 388 14,500 2,400 Climbing Atlanta Center
02:00PM 33.4536 -87.4367 264° West 353 406 18,000 2,280 Climbing Memphis Center
02:00PM 33.4547 -87.4814 272° West 366 421 18,800 1,980 Climbing Memphis Center
02:01PM 33.4597 -87.6058 273° West 383 441 20,800 1,920 Climbing Memphis Center
02:02PM 33.4625 -87.7328 272° West 383 441 22,700 1,560 Climbing Memphis Center
02:03PM 33.4650 -87.8619 271° West 383 441 24,000 1,560 Climbing Memphis Center
02:04PM 33.4697 -87.9964 272° West 396 456 25,900 2,160 Climbing Memphis Center
02:05PM 33.4742 -88.1258 272° West 401 461 28,400 2,160 Climbing Memphis Center
02:06PM 33.4806 -88.2528 273° West 401 461 30,300 1,560 Climbing Memphis Center
02:07PM 33.4828 -88.3722 271° West 381 438 31,600 1,200 Climbing Memphis Center
02:08PM 33.4867 -88.4992 272° West 381 438 32,700 1,200 Climbing Memphis Center
02:09PM 33.4864 -88.6186 270° West 370 426 34,100 660 Climbing Memphis Center
02:10PM 33.4858 -88.7408 270° West 365 420 34,100 480 Level Memphis Center
02:11PM 33.4833 -88.8603 269° West 365 420 35,100 900 Climbing Memphis Center
02:12PM 33.4847 -88.9822 271° West 365 420 36,000 480 Climbing Memphis Center
02:13PM 33.4817 -89.0894 268° West 365 420 36,100  Climbing Memphis Center
02:14PM 33.4806 -89.2092 269° West 365 420 36,100  Level Memphis Center
02:15PM 33.4797 -89.3311 270° West 365 420 36,100  Level Memphis Center
02:16PM 33.4786 -89.4531 269° West 365 420 36,100  Level Memphis Center
02:17PM 33.4772 -89.5778 269° West 365 420 36,100  Level Memphis Center
02:18PM 33.4739 -89.6972 268° West 365 420 36,100  Level Memphis Center
02:19PM 33.4722 -89.8217 269° West 365 420 36,100  Level Memphis Center
02:20PM 33.4686 -89.9439 268° West 365 420 36,100  Level Memphis Center
02:21PM 33.4669 -90.0683 269° West 365 420 36,100  Level Memphis Center
02:22PM 33.4650 -90.1928 269° West 365 420 36,100  Level Memphis Center
02:23PM 33.4506 -90.3125 262° West 365 420 36,100  Level Memphis Center
02:24PM 33.3794 -90.4344 235° Southwest 371 427 36,100  Level Memphis Center
02:25PM 33.3231 -90.5461 239° Southwest 386 444 36,100  Level Memphis Center
02:26PM 33.2644 -90.6553 237° Southwest 399 459 36,100  Level Memphis Center
02:27PM 33.2036 -90.7669 237° Southwest 409 471 36,100  Level Memphis Center
02:28PM 33.1469 -90.8733 238° Southwest 409 471 36,100  Level Memphis Center
02:29PM 33.0878 -90.9844 238° Southwest 404 465 36,100  Level Memphis Center
02:30PM 33.0308 -91.0933 238° Southwest 404 465 36,100  Level Memphis Center
02:32PM 32.9050 -91.3222 237° Southwest 402 463 36,100  Level Fort Worth Center
02:33PM 32.8497 -91.4322 239° Southwest 397 457 36,100  Level Fort Worth Center
02:34PM 32.7900 -91.5375 236° Southwest 392 451 36,100  Level Fort Worth Center
02:35PM 32.7322 -91.6400 236° Southwest 387 445 36,100  Level Fort Worth Center
02:36PM 32.6767 -91.7497 239° Southwest 387 445 36,100  Level Fort Worth Center
02:37PM 32.6186 -91.8519 236° Southwest 387 445 36,100  Level Fort Worth Center
02:38PM 32.5606 -91.9567 237° Southwest 387 445 36,100  Level Fort Worth Center
02:39PM 32.5153 -92.0678 244° Southwest 387 445 36,100  Level Fort Worth Center
02:40PM 32.5056 -92.1864 264° West 358 412 36,100  Level Fort Worth Center
02:41PM 32.5003 -92.3075 267° West 364 419 36,100  Level Fort Worth Center
02:42PM 32.4925 -92.4286 266° West 371 427 36,100  Level Fort Worth Center
02:43PM 32.4858 -92.5275 265° West 359 413 36,100  Level Fort Worth Center
02:44PM 32.4781 -92.6461 266° West 359 413 36,100  Level Fort Worth Center
02:45PM 32.4658 -92.7647 263° West 365 420 36,100  Level Fort Worth Center
02:46PM 32.4575 -92.8833 265° West 365 420 36,100  Level Fort Worth Center
02:47PM 32.4494 -93.0044 266° West 372 428 36,100  Level Fort Worth Center
02:48PM 32.4386 -93.1206 264° West 372 428 36,100  Level Fort Worth Center
02:49PM 32.4286 -93.2517 265° West 366 421 36,100  Level Fort Worth Center
02:50PM 32.4178 -93.3703 264° West 371 427 36,100  Level Fort Worth Center
02:51PM 32.4092 -93.4911 265° West 371 427 36,100  Level Fort Worth Center
02:52PM 32.4003 -93.6119 265° West 371 427 36,100  Level Fort Worth Center
02:53PM 32.4036 -93.7275 272° West 366 421 36,100  Level Fort Worth Center
02:54PM 32.4031 -93.8506 270° West 366 421 36,100  Level Fort Worth Center
02:55PM 32.4044 -93.9711 271° West 366 421 36,100  Level Fort Worth Center
02:56PM 32.4056 -94.0892 271° West 366 421 36,100  Level Fort Worth Center
02:57PM 32.4086 -94.2094 272° West 366 421 36,100  Level Fort Worth Center
02:58PM 32.4094 -94.3300 271° West 366 421 36,100  Level Fort Worth Center
02:59PM 32.4103 -94.4531 270° West 366 421 36,100  Level Fort Worth Center
03:00PM 32.4153 -94.5736 273° West 366 421 36,100  Level Fort Worth Center
03:01PM 32.4136 -94.6892 269° West 366 421 36,100 -300 Level Fort Worth Center
03:02PM 32.4056 -94.8100 266° West 366 421 35,500 -1,020 Descending Fort Worth Center
03:03PM 32.3872 -94.9236 259° West 366 421 34,100 -1,260 Descending Fort Worth Center
03:04PM 32.3767 -95.0297 263° West 366 421 33,000 -1,020 Descending Fort Worth Center
03:05PM 32.3558 -95.1508 259° West 371 427 32,100 -1,800 Descending Fort Worth Center
03:06PM 32.3353 -95.2889 260° West 381 438 29,400 -3,240 Descending Fort Worth Center
03:07PM 32.3686 -95.4111 288° West 373 429 25,700 -3,540 Descending Fort Worth Center
03:08PM 32.3936 -95.5386 283° West 392 451 22,400 -3,180 Descending Fort Worth Center
03:09PM 32.4225 -95.6586 286° West 392 451 19,400 -2,820 Descending Fort Worth Center
03:10PM 32.4492 -95.7786 285° West 387 445 16,800 -2,280 Descending Fort Worth Center
03:11PM 32.4736 -95.8964 284° West 375 432 14,900 -1,500 Descending Fort Worth Center
03:12PM 32.4914 -95.9947 282° West 363 418 13,800 -1,260 Descending Fort Worth Center
03:13PM 32.5178 -96.1150 285° West 350 403 12,400 -1,740 Descending Fort Worth Center
03:14PM 32.5375 -96.2158 283° West 350 403 10,400 -1,620 Descending Fort Worth Center
03:15PM 32.5614 -96.3264 284° West 335 386 9,200 -1,200 Descending Fort Worth Center
03:16PM 32.5997 -96.3950 304° West 294 338 8,100 -1,560 Descending Fort Worth Center
03:17PM 32.6506 -96.4833 304° West 294 338 6,100 -1,320 Descending Fort Worth Center
03:18PM 32.7072 -96.5344 323° Northwest 288 331 5,500 -780 Descending Fort Worth Center
03:19PM 32.7639 -96.5958 318° Northwest 258 297 4,600 -720 Descending Fort Worth Center
03:20PM 32.8081 -96.6522 313° West 251 289 4,100 -600 Descending Fort Worth Center
03:21PM 32.8608 -96.7233 311° West 261 300 3,400 -540 Descending Fort Worth Center
03:22PM 32.9069 -96.7875 311° West 261 300 3,100 -660 Descending Fort Worth Center
03:23PM 32.9364 -96.8517 299° West 238 274 2,100 -900 Descending Fort Worth Center
03:23PM 32.9333 -96.8667 256° West 232 267 2,000 -480 Descending Dallas / Fort Worth TRACON
03:24PM 32.9000 -96.9000 220° Southwest 143 165 1,500 -600 Descending Dallas / Fort Worth TRACON
03:25PM 32.8667 -96.8667 140° Southeast 130 150 800 8,160 Descending Dallas / Fort Worth TRACON
03:27PM 32.8217 -96.8497 162° South 107 123 24,000 13,200 Climbing Fort Worth Center